Ride On — 2ETV4 — position and weather

sailwx.info

Track history (hours):
 
Tides and Currents Weather Stations Pressure Air Temp Water Temp Dewpoint Dewpoint Depression Visibility Wind Speed Wind Dir Waves Ship Positions

Ride On

Last reported at 2018-Jun-15 14:46 UTC. Time now 2018-Jun-19 02:57 UTC.
Position N 47°39' W 003°27'.

Length 12 m.

Type: Sailing vessel. MMSI: 235088121.

Date/timePositionNaut miles runAvg speedWind from/ knotsBaromVisibWave heightAir tempDewpointWater temp
2018-Jun-15 14:46N 47°39' W 003°27'1 4.0
2018-Jun-15 14:25N 47°40' W 003°25'2 5.0
2018-Jun-15 14:00N 47°41' W 003°23'2 3.9
2018-Jun-15 13:30N 47°43' W 003°22'1 2.9
2018-Jun-15 13:00N 47°45' W 003°21'  
2018-Jun-11 19:37N 47°45' W 003°21'0 0.0
2018-Jun-11 19:31N 47°45' W 003°21'0 0.3
2018-Jun-11 19:01N 47°44' W 003°21'2 4.5
2018-Jun-11 18:30N 47°42' W 003°22'3 5.6
2018-Jun-11 18:00N 47°41' W 003°26'60 5.9
2018-Jun-11 07:58N 48°09' W 004°44'3 6.0
2018-Jun-11 07:27N 48°12' W 004°43'2 5.3
2018-Jun-11 07:00N 48°14' W 004°42'3 6.8
2018-Jun-11 06:30N 48°17' W 004°39'3 6.4
2018-Jun-11 06:00N 48°20' W 004°35'4 7.5
2018-Jun-11 05:30N 48°22' W 004°31'1 2.6
2018-Jun-11 04:59N 48°23' W 004°29'0 0.0
2018-Jun-10 15:52N 48°23' W 004°29'0 0.0
2018-Jun-10 15:28N 48°23' W 004°29'0 0.0
2018-Jun-10 15:00N 48°23' W 004°29'2 3.6
2018-Jun-10 14:30N 48°21' W 004°29'2 2.3
2018-Jun-10 13:30N 48°19' W 004°32'1 1.6
2018-Jun-10 12:59N 48°19' W 004°33'0 0.0
2018-Jun-10 12:29N 48°19' W 004°33'0 0.0
2018-Jun-10 11:59N 48°19' W 004°33'0 0.0
2018-Jun-10 11:29N 48°19' W 004°33'0 0.0
2018-Jun-10 10:59N 48°19' W 004°33'0 0.0
2018-Jun-10 10:29N 48°19' W 004°33'0 0.0
2018-Jun-10 09:59N 48°19' W 004°33'0 0.0
2018-Jun-10 09:29N 48°19' W 004°33'0 0.7
2018-Jun-10 09:00N 48°19' W 004°32'3 5.5
2018-Jun-10 08:30N 48°20' W 004°28'1 2.7
2018-Jun-10 08:00N 48°21' W 004°28'0 0.7
2018-Jun-10 07:30N 48°22' W 004°28'1 2.5
2018-Jun-10 06:59N 48°23' W 004°29'0 0.0
2018-Jun-10 06:29N 48°23' W 004°29'0 0.0
2018-Jun-10 05:59N 48°23' W 004°29'0 0.0
2018-Jun-10 05:29N 48°23' W 004°29'0 0.0
2018-Jun-10 04:59N 48°23' W 004°29'0 0.0
2018-Jun-10 04:29N 48°23' W 004°29'0 0.0
2018-Jun-10 03:59N 48°23' W 004°29'0 0.0
2018-Jun-10 03:29N 48°23' W 004°29'0 0.0
2018-Jun-10 02:59N 48°23' W 004°29'0 0.0
2018-Jun-10 02:29N 48°23' W 004°29'0 0.0
2018-Jun-10 01:59N 48°23' W 004°29'0 0.0
2018-Jun-10 01:29N 48°23' W 004°29'0 0.0
2018-Jun-10 00:59N 48°23' W 004°29'0 0.0
2018-Jun-10 00:29N 48°23' W 004°29'0 0.0
2018-Jun-09 23:59N 48°23' W 004°29'0 0.0
2018-Jun-09 23:29N 48°23' W 004°29'0 0.0
2018-Jun-09 22:59N 48°23' W 004°29'0 0.0
2018-Jun-09 22:29N 48°23' W 004°29'0 0.0
2018-Jun-09 21:59N 48°23' W 004°29'0 0.0
2018-Jun-09 21:29N 48°23' W 004°29'0 0.0
2018-Jun-09 20:59N 48°23' W 004°29'0 0.0
2018-Jun-09 20:29N 48°23' W 004°29'0 0.0
2018-Jun-09 19:59N 48°23' W 004°29'0 0.0
2018-Jun-09 19:29N 48°23' W 004°29'0 0.0
2018-Jun-09 18:59N 48°23' W 004°29'0 0.0
2018-Jun-09 18:29N 48°23' W 004°29'0 0.0
2018-Jun-09 17:59N 48°23' W 004°29'0 0.0
2018-Jun-09 17:29N 48°23' W 004°29'0 0.0
2018-Jun-09 16:59N 48°23' W 004°29'0 0.0
2018-Jun-09 16:29N 48°23' W 004°29'0 0.0
2018-Jun-09 15:59N 48°23' W 004°29'0 0.0
2018-Jun-09 14:59N 48°23' W 004°29'0 0.0
2018-Jun-09 14:29N 48°23' W 004°29'1 1.7
2018-Jun-09 13:58N 48°22' W 004°29'0 0.7
2018-Jun-09 13:29N 48°22' W 004°29'1 2.0
2018-Jun-09 13:00N 48°22' W 004°30'2 3.8
2018-Jun-09 12:30N 48°20' W 004°29'2 4.3
2018-Jun-09 11:59N 48°22' W 004°27'0 0.3
2018-Jun-09 11:30N 48°22' W 004°27'0 0.3
2018-Jun-09 11:00N 48°22' W 004°27'1 3.0
2018-Jun-09 10:30N 48°23' W 004°29'0 0.2
2018-Jun-09 10:00N 48°23' W 004°29'0 0.0
2018-Jun-09 09:30N 48°23' W 004°29'0 0.0
2018-Jun-09 09:00N 48°23' W 004°29'0 0.0
2018-Jun-09 08:30N 48°23' W 004°29'0 0.0
2018-Jun-09 08:00N 48°23' W 004°29'0 0.0
2018-Jun-09 07:30N 48°23' W 004°29'0 0.0
2018-Jun-09 07:00N 48°23' W 004°29'0 0.0
2018-Jun-09 06:30N 48°23' W 004°29'0 0.0
2018-Jun-09 06:00N 48°23' W 004°29'0 0.0
2018-Jun-09 05:30N 48°23' W 004°29'0 0.0
2018-Jun-09 04:57N 48°23' W 004°29'0 0.0
2018-Jun-09 04:27N 48°23' W 004°29'0 0.0
2018-Jun-09 04:00N 48°23' W 004°29'0 0.0
2018-Jun-09 03:30N 48°23' W 004°29'0 0.0
2018-Jun-09 03:00N 48°23' W 004°29'0 0.0
2018-Jun-09 02:30N 48°23' W 004°29'0 0.0
2018-Jun-09 02:00N 48°23' W 004°29'0 0.0
2018-Jun-09 01:30N 48°23' W 004°29'0 0.0
2018-Jun-09 01:00N 48°23' W 004°29'0 0.0
2018-Jun-09 00:30N 48°23' W 004°29'0 0.0
2018-Jun-09 00:00N 48°23' W 004°29'0 0.0
2018-Jun-08 23:30N 48°23' W 004°29'0 0.0
2018-Jun-08 23:00N 48°23' W 004°29'0 0.0
2018-Jun-08 22:30N 48°23' W 004°29'0 0.0
2018-Jun-08 22:00N 48°23' W 004°29'0 0.0
2018-Jun-08 21:30N 48°23' W 004°29'0 0.0
2018-Jun-08 20:51N 48°23' W 004°29'0 0.0
2018-Jun-08 20:30N 48°23' W 004°29'0 0.0
2018-Jun-08 20:00N 48°23' W 004°29'0 0.0
2018-Jun-08 19:30N 48°23' W 004°29'0 0.0
2018-Jun-08 19:00N 48°23' W 004°29'0 0.0
2018-Jun-08 18:30N 48°23' W 004°29'0 0.0
2018-Jun-08 18:00N 48°23' W 004°29'0 0.0
2018-Jun-08 17:30N 48°23' W 004°29'0 0.0
2018-Jun-08 17:00N 48°23' W 004°29'0 0.0
2018-Jun-08 16:30N 48°23' W 004°29'0 0.0
2018-Jun-08 16:00N 48°23' W 004°29'0 0.0
2018-Jun-08 15:30N 48°23' W 004°29'0 0.0
2018-Jun-08 15:00N 48°23' W 004°29'0 0.0
2018-Jun-08 14:30N 48°23' W 004°29'0 0.0
2018-Jun-08 14:00N 48°23' W 004°29'0 0.0
2018-Jun-08 13:30N 48°23' W 004°29'0 0.0
2018-Jun-08 13:00N 48°23' W 004°29'0 0.0
2018-Jun-08 12:30N 48°23' W 004°29'0 0.0
2018-Jun-08 12:00N 48°23' W 004°29'0 0.0
2018-Jun-08 11:30N 48°23' W 004°29'0 0.0
2018-Jun-08 11:00N 48°23' W 004°29'0 0.0
2018-Jun-08 10:30N 48°23' W 004°29'0 0.0
2018-Jun-08 10:00N 48°23' W 004°29'0 0.0
2018-Jun-08 09:30N 48°23' W 004°29'0 0.0
2018-Jun-08 09:00N 48°23' W 004°29'0 0.0
2018-Jun-08 08:30N 48°23' W 004°29'0 0.0
2018-Jun-08 08:00N 48°23' W 004°29'0 0.0
2018-Jun-08 07:30N 48°23' W 004°29'0 0.0
2018-Jun-08 07:00N 48°23' W 004°29'0 0.0
2018-Jun-08 06:30N 48°23' W 004°29'0 0.0
2018-Jun-08 06:00N 48°23' W 004°29'0 0.2
2018-Jun-08 05:30N 48°23' W 004°29'1 1.9
2018-Jun-08 04:59N 48°22' W 004°30'0 0.0
2018-Jun-08 04:29N 48°22' W 004°30'0 0.0
2018-Jun-08 03:59N 48°22' W 004°30'0 0.0
2018-Jun-08 03:29N 48°22' W 004°30'0 0.0
2018-Jun-08 02:59N 48°22' W 004°30'0 0.0
2018-Jun-08 02:29N 48°22' W 004°30'0 0.1
2018-Jun-08 01:59N 48°22' W 004°30'2 3.8
2018-Jun-08 01:31N 48°21' W 004°32'2 5.0
2018-Jun-08 01:01N 48°19' W 004°35'3 5.2
2018-Jun-08 00:31N 48°17' W 004°38'3 5.4
2018-Jun-07 23:58N 48°15' W 004°40'3 6.0
2018-Jun-07 23:25N 48°12' W 004°41'3 6.1
2018-Jun-07 22:58N 48°09' W 004°43'54 5.4
2018-Jun-07 13:00N 47°42' W 003°33'3 6.6
2018-Jun-07 12:30N 47°41' W 003°29'3 6.2
2018-Jun-07 12:01N 47°41' W 003°24'3 6.0
2018-Jun-07 11:30N 47°44' W 003°21'  
Track history (hours):
 
Tides and Currents Weather Stations Pressure Air Temp Water Temp Dewpoint Dewpoint Depression Visibility Wind Speed Wind Dir Waves Ship Positions

Ride On

Last reported at 2018-Jun-15 14:46 UTC. Time now 2018-Jun-19 02:57 UTC.
Position N 47°39' W 003°27'.

Length 12 m.

Type: Sailing vessel. MMSI: 235088121.

Date/timePositionNaut miles runAvg speedWind from/ knotsBaromVisibWave heightAir tempDewpointWater temp
2018-Jun-15 14:46N 47°39' W 003°27'1 4.0
2018-Jun-15 14:25N 47°40' W 003°25'2 5.0
2018-Jun-15 14:00N 47°41' W 003°23'2 3.9
2018-Jun-15 13:30N 47°43' W 003°22'1 2.9
2018-Jun-15 13:00N 47°45' W 003°21'  
2018-Jun-11 19:37N 47°45' W 003°21'0 0.0
2018-Jun-11 19:31N 47°45' W 003°21'0 0.3
2018-Jun-11 19:01N 47°44' W 003°21'2 4.5
2018-Jun-11 18:30N 47°42' W 003°22'3 5.6
2018-Jun-11 18:00N 47°41' W 003°26'60 5.9
2018-Jun-11 07:58N 48°09' W 004°44'3 6.0
2018-Jun-11 07:27N 48°12' W 004°43'2 5.3
2018-Jun-11 07:00N 48°14' W 004°42'3 6.8
2018-Jun-11 06:30N 48°17' W 004°39'3 6.4
2018-Jun-11 06:00N 48°20' W 004°35'4 7.5
2018-Jun-11 05:30N 48°22' W 004°31'1 2.6
2018-Jun-11 04:59N 48°23' W 004°29'0 0.0
2018-Jun-10 15:52N 48°23' W 004°29'0 0.0
2018-Jun-10 15:28N 48°23' W 004°29'0 0.0
2018-Jun-10 15:00N 48°23' W 004°29'2 3.6
2018-Jun-10 14:30N 48°21' W 004°29'2 2.3
2018-Jun-10 13:30N 48°19' W 004°32'1 1.6
2018-Jun-10 12:59N 48°19' W 004°33'0 0.0
2018-Jun-10 12:29N 48°19' W 004°33'0 0.0
2018-Jun-10 11:59N 48°19' W 004°33'0 0.0
2018-Jun-10 11:29N 48°19' W 004°33'0 0.0
2018-Jun-10 10:59N 48°19' W 004°33'0 0.0
2018-Jun-10 10:29N 48°19' W 004°33'0 0.0
2018-Jun-10 09:59N 48°19' W 004°33'0 0.0
2018-Jun-10 09:29N 48°19' W 004°33'0 0.7
2018-Jun-10 09:00N 48°19' W 004°32'3 5.5
2018-Jun-10 08:30N 48°20' W 004°28'1 2.7
2018-Jun-10 08:00N 48°21' W 004°28'0 0.7
2018-Jun-10 07:30N 48°22' W 004°28'1 2.5
2018-Jun-10 06:59N 48°23' W 004°29'0 0.0
2018-Jun-10 06:29N 48°23' W 004°29'0 0.0
2018-Jun-10 05:59N 48°23' W 004°29'0 0.0
2018-Jun-10 05:29N 48°23' W 004°29'0 0.0
2018-Jun-10 04:59N 48°23' W 004°29'0 0.0
2018-Jun-10 04:29N 48°23' W 004°29'0 0.0
2018-Jun-10 03:59N 48°23' W 004°29'0 0.0
2018-Jun-10 03:29N 48°23' W 004°29'0 0.0
2018-Jun-10 02:59N 48°23' W 004°29'0 0.0
2018-Jun-10 02:29N 48°23' W 004°29'0 0.0
2018-Jun-10 01:59N 48°23' W 004°29'0 0.0
2018-Jun-10 01:29N 48°23' W 004°29'0 0.0
2018-Jun-10 00:59N 48°23' W 004°29'0 0.0
2018-Jun-10 00:29N 48°23' W 004°29'0 0.0
2018-Jun-09 23:59N 48°23' W 004°29'0 0.0
2018-Jun-09 23:29N 48°23' W 004°29'0 0.0
2018-Jun-09 22:59N 48°23' W 004°29'0 0.0
2018-Jun-09 22:29N 48°23' W 004°29'0 0.0
2018-Jun-09 21:59N 48°23' W 004°29'0 0.0
2018-Jun-09 21:29N 48°23' W 004°29'0 0.0
2018-Jun-09 20:59N 48°23' W 004°29'0 0.0
2018-Jun-09 20:29N 48°23' W 004°29'0 0.0
2018-Jun-09 19:59N 48°23' W 004°29'0 0.0
2018-Jun-09 19:29N 48°23' W 004°29'0 0.0
2018-Jun-09 18:59N 48°23' W 004°29'0 0.0
2018-Jun-09 18:29N 48°23' W 004°29'0 0.0
2018-Jun-09 17:59N 48°23' W 004°29'0 0.0
2018-Jun-09 17:29N 48°23' W 004°29'0 0.0
2018-Jun-09 16:59N 48°23' W 004°29'0 0.0
2018-Jun-09 16:29N 48°23' W 004°29'0 0.0
2018-Jun-09 15:59N 48°23' W 004°29'0 0.0
2018-Jun-09 14:59N 48°23' W 004°29'0 0.0
2018-Jun-09 14:29N 48°23' W 004°29'1 1.7
2018-Jun-09 13:58N 48°22' W 004°29'0 0.7
2018-Jun-09 13:29N 48°22' W 004°29'1 2.0
2018-Jun-09 13:00N 48°22' W 004°30'2 3.8
2018-Jun-09 12:30N 48°20' W 004°29'2 4.3
2018-Jun-09 11:59N 48°22' W 004°27'0 0.3
2018-Jun-09 11:30N 48°22' W 004°27'0 0.3
2018-Jun-09 11:00N 48°22' W 004°27'1 3.0
2018-Jun-09 10:30N 48°23' W 004°29'0 0.2
2018-Jun-09 10:00N 48°23' W 004°29'0 0.0
2018-Jun-09 09:30N 48°23' W 004°29'0 0.0
2018-Jun-09 09:00N 48°23' W 004°29'0 0.0
2018-Jun-09 08:30N 48°23' W 004°29'0 0.0
2018-Jun-09 08:00N 48°23' W 004°29'0 0.0
2018-Jun-09 07:30N 48°23' W 004°29'0 0.0
2018-Jun-09 07:00N 48°23' W 004°29'0 0.0
2018-Jun-09 06:30N 48°23' W 004°29'0 0.0
2018-Jun-09 06:00N 48°23' W 004°29'0 0.0
2018-Jun-09 05:30N 48°23' W 004°29'0 0.0
2018-Jun-09 04:57N 48°23' W 004°29'0 0.0
2018-Jun-09 04:27N 48°23' W 004°29'0 0.0
2018-Jun-09 04:00N 48°23' W 004°29'0 0.0
2018-Jun-09 03:30N 48°23' W 004°29'0 0.0
2018-Jun-09 03:00N 48°23' W 004°29'0 0.0
2018-Jun-09 02:30N 48°23' W 004°29'0 0.0
2018-Jun-09 02:00N 48°23' W 004°29'0 0.0
2018-Jun-09 01:30N 48°23' W 004°29'0 0.0
2018-Jun-09 01:00N 48°23' W 004°29'0 0.0
2018-Jun-09 00:30N 48°23' W 004°29'0 0.0
2018-Jun-09 00:00N 48°23' W 004°29'0 0.0
2018-Jun-08 23:30N 48°23' W 004°29'0 0.0
2018-Jun-08 23:00N 48°23' W 004°29'0 0.0
2018-Jun-08 22:30N 48°23' W 004°29'0 0.0
2018-Jun-08 22:00N 48°23' W 004°29'0 0.0
2018-Jun-08 21:30N 48°23' W 004°29'0 0.0
2018-Jun-08 20:51N 48°23' W 004°29'0 0.0
2018-Jun-08 20:30N 48°23' W 004°29'0 0.0
2018-Jun-08 20:00N 48°23' W 004°29'0 0.0
2018-Jun-08 19:30N 48°23' W 004°29'0 0.0
2018-Jun-08 19:00N 48°23' W 004°29'0 0.0
2018-Jun-08 18:30N 48°23' W 004°29'0 0.0
2018-Jun-08 18:00N 48°23' W 004°29'0 0.0
2018-Jun-08 17:30N 48°23' W 004°29'0 0.0
2018-Jun-08 17:00N 48°23' W 004°29'0 0.0
2018-Jun-08 16:30N 48°23' W 004°29'0 0.0
2018-Jun-08 16:00N 48°23' W 004°29'0 0.0
2018-Jun-08 15:30N 48°23' W 004°29'0 0.0
2018-Jun-08 15:00N 48°23' W 004°29'0 0.0
2018-Jun-08 14:30N 48°23' W 004°29'0 0.0
2018-Jun-08 14:00N 48°23' W 004°29'0 0.0
2018-Jun-08 13:30N 48°23' W 004°29'0 0.0
2018-Jun-08 13:00N 48°23' W 004°29'0 0.0
2018-Jun-08 12:30N 48°23' W 004°29'0 0.0
2018-Jun-08 12:00N 48°23' W 004°29'0 0.0
2018-Jun-08 11:30N 48°23' W 004°29'0 0.0
2018-Jun-08 11:00N 48°23' W 004°29'0 0.0
2018-Jun-08 10:30N 48°23' W 004°29'0 0.0
2018-Jun-08 10:00N 48°23' W 004°29'0 0.0
2018-Jun-08 09:30N 48°23' W 004°29'0 0.0
2018-Jun-08 09:00N 48°23' W 004°29'0 0.0
2018-Jun-08 08:30N 48°23' W 004°29'0 0.0
2018-Jun-08 08:00N 48°23' W 004°29'0 0.0
2018-Jun-08 07:30N 48°23' W 004°29'0 0.0
2018-Jun-08 07:00N 48°23' W 004°29'0 0.0
2018-Jun-08 06:30N 48°23' W 004°29'0 0.0
2018-Jun-08 06:00N 48°23' W 004°29'0 0.2
2018-Jun-08 05:30N 48°23' W 004°29'1 1.9
2018-Jun-08 04:59N 48°22' W 004°30'0 0.0
2018-Jun-08 04:29N 48°22' W 004°30'0 0.0
2018-Jun-08 03:59N 48°22' W 004°30'0 0.0
2018-Jun-08 03:29N 48°22' W 004°30'0 0.0
2018-Jun-08 02:59N 48°22' W 004°30'0 0.0
2018-Jun-08 02:29N 48°22' W 004°30'0 0.1
2018-Jun-08 01:59N 48°22' W 004°30'2 3.8
2018-Jun-08 01:31N 48°21' W 004°32'2 5.0
2018-Jun-08 01:01N 48°19' W 004°35'3 5.2
2018-Jun-08 00:31N 48°17' W 004°38'3 5.4
2018-Jun-07 23:58N 48°15' W 004°40'3 6.0
2018-Jun-07 23:25N 48°12' W 004°41'3 6.1
2018-Jun-07 22:58N 48°09' W 004°43'54 5.4
2018-Jun-07 13:00N 47°42' W 003°33'3 6.6
2018-Jun-07 12:30N 47°41' W 003°29'3 6.2
2018-Jun-07 12:01N 47°41' W 003°24'3 6.0
2018-Jun-07 11:30N 47°44' W 003°21'  

Dump ship's entire track history